13°C Temp
12°C Dewpoint
94% Humidity
Temperature
10 KM/H
6 MPH
5 KTS
40°
North East

Wind Speed
Light Rain
Showers
Pressure 1015.92 (hPa) - 30 (in)
Visibility 1.9 (mi) - 3.0 (km)

Current Conditions
LEMG
Location 9(km)
Metar :LEMG 201330Z 04005KT 350V130 3500 -RA FEW010 SCT025 BKN035 13/12 Q1016 NOSIG
Wed 20th January 15:30 pm

Airport
  Metar Aviation API Data Provided by https://www.checkwx.com/ PHP scripts by weather34.com ©2021